Time;durP1;ratioP1;P1;durP2;ratioP2;P2;SDS_P1;SDS_P2;PMS_P1;PMS_P2;Temp;Humidity;BMP_temperature;BMP_pressure;BME280_temperature;BME280_humidity;BME280_pressure;Samples;Min_cycle;Max_cycle;Signal;HPM_P1;HPM_P2
2022/04/30 00:00:21;;;;;;;0.30;0.30;;;13.80;99.90;;;-141.50;100.00;62695.63;4996716;28;21019;-67
2022/04/30 00:02:48;;;;;;;0.30;0.30;;;13.80;99.90;;;-141.50;100.00;62695.63;5001416;28;20643;-68
2022/04/30 00:05:17;;;;;;;0.30;0.30;;;13.70;99.90;;;-141.50;100.00;62695.63;5009086;28;21080;-69
2022/04/30 00:07:44;;;;;;;3.07;2.87;;;13.70;99.90;;;-141.50;100.00;62695.63;4989352;28;20662;-68
2022/04/30 00:10:11;;;;;;;1.03;0.70;;;13.80;99.90;;;-141.50;100.00;62695.63;4990001;28;20614;-69
2022/04/30 00:12:38;;;;;;;0.40;0.40;;;13.60;99.90;;;-141.50;100.00;62695.63;4989042;28;20636;-67
2022/04/30 00:15:05;;;;;;;0.30;0.30;;;13.60;99.90;;;-141.50;100.00;62695.63;4990087;28;20657;-67
2022/04/30 00:17:32;;;;;;;0.30;0.30;;;13.60;99.90;;;-141.50;100.00;62695.63;4991619;28;20630;-67
2022/04/30 00:20:00;;;;;;;0.77;0.77;;;13.50;99.90;;;-141.50;100.00;62695.63;4993894;28;20632;-67
2022/04/30 00:22:27;;;;;;;0.43;0.43;;;13.40;99.90;;;-141.50;100.00;62695.63;4992699;28;20685;-68
2022/04/30 00:24:54;;;;;;;0.30;0.30;;;13.30;99.90;;;-141.50;100.00;62695.63;4993432;28;20741;-68
2022/04/30 00:27:21;;;;;;;;;;;13.10;99.90;;;-141.50;100.00;62695.63;4994315;28;20843;-69
2022/04/30 00:29:48;;;;;;;;;;;13.00;99.90;;;-141.50;100.00;62695.63;4998695;28;19935;-68
2022/04/30 00:32:15;;;;;;;;;;;13.00;99.90;;;-141.50;100.00;62695.63;5000935;28;20299;-67
2022/04/30 00:34:42;;;;;;;;;;;13.00;99.90;;;-141.50;100.00;62695.63;4992609;28;20428;-68
2022/04/30 00:37:10;;;;;;;;;;;12.90;99.90;;;-141.50;100.00;62695.63;5005489;28;20395;-67
2022/04/30 00:39:37;;;;;;;;;;;12.90;99.90;;;-141.50;100.00;62695.63;5013795;28;20037;-64
2022/04/30 00:42:04;;;;;;;;;;;12.90;99.90;;;-141.50;100.00;62695.63;5006602;28;19926;-68
2022/04/30 00:44:31;;;;;;;0.30;0.30;;;12.80;99.90;;;-141.50;100.00;62695.63;5008414;28;20219;-65
2022/04/30 00:46:58;;;;;;;0.30;0.30;;;12.70;99.90;;;-141.50;100.00;62695.63;5011509;28;21224;-67
2022/04/30 00:49:25;;;;;;;0.30;0.30;;;12.70;99.90;;;-141.50;100.00;62695.63;5000833;28;20678;-67
2022/04/30 00:51:56;;;;;;;0.30;0.30;;;12.60;99.90;;;-141.50;100.00;62695.63;4976946;28;20610;-68
2022/04/30 00:54:26;;;;;;;2.20;1.67;;;12.60;99.90;;;-141.50;100.00;62695.63;5003715;28;20666;-68
2022/04/30 00:57:03;;;;;;;0.30;0.30;;;12.50;99.90;;;-141.50;100.00;62695.63;4992480;28;20613;-67
2022/04/30 00:59:31;;;;;;;0.30;0.30;;;12.60;99.90;;;-141.50;100.00;62695.63;4992583;28;20626;-68
2022/04/30 01:01:59;;;;;;;0.40;0.40;;;12.60;99.90;;;-141.50;100.00;62695.63;4979808;28;20648;-68
2022/04/30 01:04:27;;;;;;;0.30;0.30;;;12.60;99.90;;;-141.50;100.00;62695.63;4992155;28;20658;-67
2022/04/30 01:07:10;;;;;;;0.30;0.30;;;12.70;99.90;;;-141.50;100.00;62695.63;5005884;28;20724;-69
2022/04/30 01:09:43;;;;;;;0.30;0.30;;;12.70;99.90;;;-141.50;100.00;62695.63;5010474;28;20675;-65
2022/04/30 01:12:13;;;;;;;0.30;0.30;;;12.60;99.90;;;-141.50;100.00;62695.63;5012198;28;20610;-68
2022/04/30 01:14:42;;;;;;;0.30;0.30;;;12.60;99.90;;;-141.50;100.00;62695.63;4994598;28;20746;-69
2022/04/30 01:17:11;;;;;;;0.30;0.30;;;12.70;99.90;;;-141.50;100.00;62695.63;5003779;28;20618;-68
2022/04/30 01:19:42;;;;;;;0.30;0.30;;;12.60;99.90;;;-141.50;100.00;62695.63;4994465;28;20661;-65
2022/04/30 01:22:23;;;;;;;0.60;0.60;;;12.70;99.90;;;-141.50;100.00;62695.63;5012159;28;20708;-68
2022/04/30 01:24:55;;;;;;;0.30;0.30;;;12.70;99.90;;;-141.50;100.00;62695.63;5037233;23;20698;-65
2022/04/30 01:27:26;;;;;;;0.30;0.30;;;12.80;99.90;;;-141.50;100.00;62695.63;4975930;28;20584;-66
2022/04/30 01:29:55;;;;;;;0.30;0.30;;;12.70;99.90;;;-141.50;100.00;62695.63;4974173;28;20713;-65
2022/04/30 01:38:06;;;;;;;0.30;0.30;;;12.70;99.90;;;-141.50;100.00;62695.63;4991714;28;20638;-66
2022/04/30 01:40:33;;;;;;;0.30;0.20;;;12.70;99.90;;;-141.50;100.00;62695.63;4992077;28;20625;-66
2022/04/30 01:43:01;;;;;;;0.30;0.30;;;12.60;99.90;;;-141.50;100.00;62695.63;4973433;28;21281;-66
2022/04/30 01:45:29;;;;;;;0.30;0.30;;;12.60;99.90;;;-141.50;100.00;62695.63;4990535;28;20654;-65
2022/04/30 01:47:59;;;;;;;2.57;0.93;;;12.60;99.90;;;-141.50;100.00;62695.63;4990079;28;21087;-65
2022/04/30 01:50:26;;;;;;;0.30;0.30;;;12.60;99.90;;;-141.50;100.00;62695.63;4990375;28;20677;-65
2022/04/30 01:52:54;;;;;;;0.43;0.43;;;12.50;99.90;;;-141.50;100.00;62695.63;4990587;28;24421;-65
2022/04/30 01:55:21;;;;;;;0.30;0.20;;;12.50;99.90;;;-141.50;100.00;62695.63;4983406;28;20224;-66
2022/04/30 01:57:47;;;;;;;0.30;0.20;;;12.60;99.90;;;-141.50;100.00;62695.63;4979798;28;20714;-65
2022/04/30 02:00:15;;;;;;;0.30;0.30;;;12.60;99.90;;;-141.50;100.00;62695.63;4983982;28;20626;-65
2022/04/30 02:02:49;;;;;;;0.50;0.47;;;12.60;99.90;;;-141.50;100.00;62695.63;4991736;28;20606;-65
2022/04/30 02:05:18;;;;;;;0.30;0.30;;;12.60;99.90;;;-141.50;100.00;62695.63;4990140;28;20657;-65
2022/04/30 02:08:05;;;;;;;0.43;0.43;;;12.60;99.90;;;-141.50;100.00;62695.63;4989613;28;20633;-65
2022/04/30 02:10:36;;;;;;;0.30;0.30;;;12.50;99.90;;;-141.50;100.00;62695.63;4990341;28;21036;-65
2022/04/30 02:13:09;;;;;;;0.30;0.30;;;12.50;99.90;;;-141.50;100.00;62695.63;4983811;28;21006;-65
2022/04/30 02:15:40;;;;;;;0.30;0.20;;;12.50;99.90;;;-141.50;100.00;62695.63;4983956;28;20646;-65
2022/04/30 02:18:14;;;;;;;0.30;0.20;;;12.50;99.90;;;-141.50;100.00;62695.63;4991047;28;20856;-65
2022/04/30 02:20:44;;;;;;;0.30;0.30;;;12.50;99.90;;;-141.50;100.00;62695.63;4990723;28;20644;-65
2022/04/30 02:23:12;;;;;;;0.50;0.50;;;12.50;99.90;;;-141.50;100.00;62695.63;4991108;28;20650;-64
2022/04/30 02:25:39;;;;;;;0.30;0.30;;;12.40;99.90;;;-141.50;100.00;62695.63;4990870;28;20698;-64
2022/04/30 02:28:09;;;;;;;0.77;0.77;;;12.50;99.90;;;-141.50;100.00;62695.63;4990997;28;20753;-65
2022/04/30 02:30:38;;;;;;;0.30;0.30;;;12.40;99.90;;;-141.50;100.00;62695.63;4985048;28;20717;-64
2022/04/30 02:33:08;;;;;;;0.30;0.30;;;12.30;99.90;;;-141.50;100.00;62695.63;4989408;28;21016;-65
2022/04/30 02:35:43;;;;;;;0.50;0.50;;;12.20;99.90;;;-141.50;100.00;62695.63;4988810;28;24923;-65
2022/04/30 02:38:10;;;;;;;0.30;0.30;;;12.20;99.90;;;-141.50;100.00;62695.63;4989771;28;20211;-65
2022/04/30 02:40:40;;;;;;;0.30;0.30;;;12.10;99.90;;;-141.50;100.00;62695.63;4990502;28;20701;-65
2022/04/30 02:43:15;;;;;;;0.30;0.20;;;12.10;99.90;;;-141.50;100.00;62695.63;4991001;28;20657;-66
2022/04/30 02:45:43;;;;;;;0.30;0.30;;;12.10;99.90;;;-141.50;100.00;62695.63;4990079;28;20646;-65
2022/04/30 02:48:13;;;;;;;0.30;0.30;;;12.10;99.90;;;-141.50;100.00;62695.63;4982683;28;20697;-65
2022/04/30 02:50:40;;;;;;;0.30;0.30;;;12.10;99.90;;;-141.50;100.00;62695.63;4991958;28;20654;-65
2022/04/30 02:53:07;;;;;;;0.30;0.23;;;12.00;99.90;;;-141.50;100.00;62695.63;4992161;28;20718;-64
2022/04/30 02:55:35;;;;;;;1.40;0.60;;;11.90;99.90;;;-141.50;100.00;62695.63;4987608;28;24449;-65
2022/04/30 03:00:51;;;;;;;0.30;0.30;;;11.90;99.90;;;-141.50;100.00;62695.63;4988049;28;20199;-65
2022/04/30 03:03:19;;;;;;;0.30;0.30;;;12.00;99.90;;;-141.50;100.00;62695.63;4981656;28;21075;-65
2022/04/30 03:05:50;;;;;;;0.30;0.30;;;11.90;99.90;;;-141.50;100.00;62695.63;4988685;28;20674;-64
2022/04/30 03:08:22;;;;;;;0.30;0.30;;;11.70;99.90;;;-141.50;100.00;62695.63;4990511;28;20751;-63
2022/04/30 03:10:55;;;;;;;0.30;0.30;;;11.80;99.90;;;-141.50;100.00;62695.63;4984376;28;20738;-65
2022/04/30 03:13:26;;;;;;;0.30;0.30;;;11.80;99.90;;;-141.50;100.00;62695.63;4956640;28;21244;-63
2022/04/30 03:21:41;;;;;;;0.30;0.23;;;11.80;99.90;;;-141.50;100.00;62695.63;4977315;28;20661;-65
2022/04/30 03:21:46;;;;;;;0.30;0.30;;;11.70;99.90;;;-141.50;100.00;62695.63;4989576;28;20290;-65
2022/04/30 03:24:18;;;;;;;0.30;0.30;;;11.80;99.90;;;-141.50;100.00;62695.63;4988948;28;20701;-65
2022/04/30 03:26:48;;;;;;;0.40;0.40;;;11.80;99.90;;;-141.50;100.00;62695.63;4988513;28;20634;-64
2022/04/30 03:29:15;;;;;;;0.30;0.20;;;11.80;99.90;;;-141.50;100.00;62695.63;4989259;28;20654;-64
2022/04/30 03:31:43;;;;;;;0.83;0.83;;;11.80;99.90;;;-141.50;100.00;62695.63;4987671;28;20644;-65
2022/04/30 03:34:14;;;;;;;0.30;0.30;;;11.80;99.90;;;-141.50;100.00;62695.63;4989318;28;20630;-65
2022/04/30 03:36:43;;;;;;;0.40;0.40;;;11.80;99.90;;;-141.50;100.00;62695.63;4986316;28;20630;-64
2022/04/30 03:39:10;;;;;;;0.30;0.30;;;11.80;99.90;;;-141.50;100.00;62695.63;4970116;28;20630;-65
2022/04/30 03:41:36;;;;;;;0.30;0.30;;;11.90;99.90;;;-141.50;100.00;62695.63;4987075;28;20635;-65
2022/04/30 03:44:04;;;;;;;0.30;0.20;;;11.80;99.90;;;-141.50;100.00;62695.63;4964915;28;20637;-64
2022/04/30 03:46:31;;;;;;;0.30;0.30;;;11.80;99.90;;;-141.50;100.00;62695.63;4977958;28;20673;-65
2022/04/30 03:49:00;;;;;;;0.40;0.30;;;11.80;99.90;;;-141.50;100.00;62695.63;4970609;28;24500;-64
2022/04/30 03:51:27;;;;;;;0.40;0.40;;;11.70;99.90;;;-141.50;100.00;62695.63;4989224;28;24517;-65
2022/04/30 03:53:54;;;;;;;0.30;0.30;;;11.70;99.90;;;-141.50;100.00;62695.63;4993621;28;20207;-64
2022/04/30 03:56:22;;;;;;;0.37;0.37;;;11.70;99.90;;;-141.50;100.00;62695.63;4995295;28;21084;-64
2022/04/30 03:58:49;;;;;;;0.30;0.20;;;11.90;99.90;;;-141.50;100.00;62695.63;4993156;28;21183;-65
2022/04/30 04:01:21;;;;;;;0.30;0.30;;;11.80;99.90;;;-141.50;100.00;62695.63;4993925;28;20669;-64
2022/04/30 04:03:50;;;;;;;0.30;0.20;;;11.70;99.90;;;-141.50;100.00;62695.63;4992389;28;20645;-65
2022/04/30 04:06:18;;;;;;;0.40;0.30;;;11.70;99.90;;;-141.50;100.00;62695.63;4991583;28;24477;-64
2022/04/30 04:08:50;;;;;;;0.40;0.30;;;11.70;99.90;;;-141.50;100.00;62695.63;4991927;28;24957;-64
2022/04/30 04:11:18;;;;;;;0.30;0.20;;;11.70;99.90;;;-141.50;100.00;62695.63;4992087;28;20630;-64
2022/04/30 04:19:20;;;;;;;0.30;0.30;;;11.70;99.90;;;-141.50;100.00;62695.63;4992848;28;21264;-65
2022/04/30 04:21:47;;;;;;;0.30;0.20;;;11.70;99.90;;;-141.50;100.00;62695.63;4989529;28;20977;-65
2022/04/30 04:27:01;;;;;;;0.30;0.30;;;11.90;99.90;;;-141.50;100.00;62695.63;4994898;28;20628;-65
2022/04/30 04:29:28;;;;;;;0.40;0.40;;;11.80;99.90;;;-141.50;100.00;62695.63;4990347;28;25061;-65
2022/04/30 04:31:54;;;;;;;0.30;0.30;;;11.80;99.90;;;-141.50;100.00;62695.63;4986522;28;20537;-65
2022/04/30 04:34:21;;;;;;;0.30;0.30;;;11.80;99.90;;;-141.50;100.00;62695.63;4992971;28;20626;-65
2022/04/30 04:36:48;;;;;;;0.30;0.20;;;11.80;99.90;;;-141.50;100.00;62695.63;4993314;28;20618;-64
2022/04/30 04:39:16;;;;;;;0.30;0.20;;;11.80;99.90;;;-141.50;100.00;62695.63;4992340;28;20625;-65
2022/04/30 04:41:43;;;;;;;0.30;0.30;;;11.90;99.90;;;-141.50;100.00;62695.63;4994553;28;20984;-65
2022/04/30 04:44:11;;;;;;;0.60;0.60;;;11.90;99.90;;;-141.50;100.00;62695.63;4992967;28;24521;-65
2022/04/30 04:46:42;;;;;;;0.40;0.40;;;11.70;99.90;;;-141.50;100.00;62695.63;4993172;28;24535;-65
2022/04/30 04:49:09;;;;;;;0.40;0.30;;;11.80;99.90;;;-141.50;100.00;62695.63;4990987;28;24453;-64
2022/04/30 04:51:36;;;;;;;0.40;0.40;;;11.80;99.90;;;-141.50;100.00;62695.63;4993144;28;24953;-65
2022/04/30 04:54:04;;;;;;;0.77;0.77;;;11.70;99.90;;;-141.50;100.00;62695.63;4989839;28;24532;-64
2022/04/30 04:56:31;;;;;;;0.40;0.30;;;11.60;99.90;;;-141.50;100.00;62695.63;4990204;28;24954;-65
2022/04/30 04:58:59;;;;;;;0.40;0.40;;;11.60;99.90;;;-141.50;100.00;62695.63;4982817;28;24531;-64
2022/04/30 05:01:26;;;;;;;0.40;0.30;;;11.70;99.90;;;-141.50;100.00;62695.63;4983598;28;24536;-65
2022/04/30 05:03:54;;;;;;;0.40;0.30;;;11.70;99.90;;;-141.50;100.00;62695.63;4988500;28;24425;-64
2022/04/30 05:06:20;;;;;;;0.40;0.30;;;11.60;99.90;;;-141.50;100.00;62695.63;4989769;28;24503;-64
2022/04/30 05:08:47;;;;;;;0.30;0.30;;;11.80;99.90;;;-141.50;100.00;62695.63;4983871;28;20307;-64
2022/04/30 05:11:22;;;;;;;0.30;0.30;;;11.70;99.90;;;-141.50;100.00;62695.63;4975541;28;20630;-64
2022/04/30 05:13:49;;;;;;;0.30;0.20;;;11.60;99.90;;;-141.50;100.00;62695.63;4992409;28;20665;-65
2022/04/30 05:16:16;;;;;;;0.30;0.30;;;11.50;99.90;;;-141.50;100.00;62695.63;4991715;28;20656;-64
2022/04/30 05:18:43;;;;;;;0.30;0.20;;;11.60;99.90;;;-141.50;100.00;62695.63;4992961;28;20981;-65
2022/04/30 05:21:10;;;;;;;0.30;0.30;;;11.70;99.90;;;-141.50;100.00;62695.63;4991820;28;20721;-64
2022/04/30 05:23:37;;;;;;;0.30;0.20;;;11.60;99.90;;;-141.50;100.00;62695.63;4979560;28;20626;-65
2022/04/30 05:26:04;;;;;;;0.30;0.27;;;11.60;99.90;;;-141.50;100.00;62695.63;4975151;28;20705;-64
2022/04/30 05:28:31;;;;;;;0.30;0.30;;;11.60;99.90;;;-141.50;100.00;62695.63;4990801;28;20622;-65
2022/04/30 05:30:58;;;;;;;0.73;0.73;;;11.70;99.90;;;-141.50;100.00;62695.63;4992518;28;20625;-64
2022/04/30 05:33:25;;;;;;;0.30;0.20;;;11.60;99.90;;;-141.50;100.00;62695.63;4993150;28;20714;-64
2022/04/30 05:35:52;;;;;;;0.30;0.30;;;11.60;99.90;;;-141.50;100.00;62695.63;5007685;28;20653;-64
2022/04/30 05:38:20;;;;;;;0.30;0.30;;;11.60;99.90;;;-141.50;100.00;62695.63;4987194;28;21267;-64
2022/04/30 05:40:47;;;;;;;0.30;0.30;;;11.60;99.90;;;-141.50;100.00;62695.63;4972401;28;20623;-65
2022/04/30 05:43:14;;;;;;;0.90;0.87;;;11.60;99.90;;;-141.50;100.00;62695.63;4984780;28;20630;-65
2022/04/30 05:45:41;;;;;;;0.30;0.30;;;11.60;99.90;;;-141.50;100.00;62695.63;4990245;28;20654;-65
2022/04/30 05:48:08;;;;;;;0.40;0.30;;;11.70;99.90;;;-141.50;100.00;62695.63;4990521;28;24417;-65
2022/04/30 05:50:35;;;;;;;0.40;0.30;;;11.90;99.90;;;-141.50;100.00;62695.63;4989015;28;24831;-64
2022/04/30 05:53:02;;;;;;;0.30;0.20;;;11.80;99.90;;;-141.50;100.00;62695.63;4990711;28;20287;-65
2022/04/30 05:55:29;;;;;;;0.30;0.30;;;11.80;99.90;;;-141.50;100.00;62695.63;4990980;28;20633;-65
2022/04/30 05:57:56;;;;;;;0.93;0.70;;;11.90;99.90;;;-141.50;100.00;62695.63;4991138;28;20761;-64
2022/04/30 06:00:23;;;;;;;0.30;0.20;;;11.90;99.90;;;-141.50;100.00;62695.63;4990751;28;20637;-64
2022/04/30 06:02:51;;;;;;;0.30;0.20;;;11.80;99.90;;;-141.50;100.00;62695.63;4990676;28;20660;-64
2022/04/30 06:05:18;;;;;;;0.40;0.30;;;11.90;99.90;;;-141.50;100.00;62695.63;4981670;28;24523;-66
2022/04/30 06:07:45;;;;;;;0.40;0.40;;;11.90;99.90;;;-141.50;100.00;62695.63;4976618;28;24545;-64
2022/04/30 06:10:12;;;;;;;0.40;0.30;;;11.80;99.90;;;-141.50;100.00;62695.63;4971721;28;24553;-64
2022/04/30 06:12:39;;;;;;;0.40;0.30;;;11.70;99.90;;;-141.50;100.00;62695.63;4974513;28;24541;-65
2022/04/30 06:15:07;;;;;;;0.40;0.30;;;11.70;99.90;;;-141.50;100.00;62695.63;4989409;28;24993;-65
2022/04/30 06:17:34;;;;;;;0.30;0.30;;;11.80;99.90;;;-141.50;100.00;62695.63;4990535;28;20282;-64
2022/04/30 06:20:01;;;;;;;0.30;0.30;;;11.90;99.90;;;-141.50;100.00;62695.63;4992604;28;21199;-65
2022/04/30 06:22:28;;;;;;;1.07;1.07;;;12.00;99.90;;;-141.50;100.00;62695.63;4992662;28;20606;-64
2022/04/30 06:24:55;;;;;;;0.30;0.20;;;11.90;99.90;;;-141.50;100.00;62695.63;4973152;28;20670;-64
2022/04/30 06:27:21;;;;;;;0.30;0.20;;;11.90;99.90;;;-141.50;100.00;62695.63;4990156;28;20621;-65
2022/04/30 06:29:50;;;;;;;0.30;0.20;;;11.70;99.90;;;-141.50;100.00;62695.63;4991049;28;20670;-65
2022/04/30 06:32:18;;;;;;;0.30;0.20;;;11.60;99.90;;;-141.50;100.00;62695.63;4990680;28;20737;-65
2022/04/30 06:34:45;;;;;;;0.30;0.20;;;11.60;99.90;;;-141.50;100.00;62695.63;4991187;28;20645;-64
2022/04/30 06:37:12;;;;;;;;;;;11.60;99.90;;;-141.50;100.00;62695.63;4992234;28;20564;-64
2022/04/30 06:39:39;;;;;;;;;;;11.50;99.90;;;-141.50;100.00;62695.63;5007515;28;20092;-64
2022/04/30 06:42:06;;;;;;;;;;;11.50;99.90;;;-141.50;100.00;62695.63;4991882;28;19921;-64
2022/04/30 06:44:33;;;;;;;;;;;11.50;99.90;;;-141.50;100.00;62695.63;4991683;28;19928;-65
2022/04/30 06:47:00;;;;;;;;;;;11.50;99.90;;;-141.50;100.00;62695.63;4991102;28;19928;-64
2022/04/30 06:49:27;;;;;;;;;;;11.60;99.90;;;-141.50;100.00;62695.63;4991401;28;20395;-64
2022/04/30 06:51:54;;;;;;;;;;;11.60;99.90;;;-141.50;100.00;62695.63;5006150;28;19922;-65
2022/04/30 06:57:11;;;;;;;;;;;11.60;99.90;;;-141.50;100.00;62695.63;4983769;28;20453;-64
2022/04/30 06:59:41;;;;;;;;;;;11.70;99.90;;;-141.50;100.00;62695.63;4990087;28;19977;-64
2022/04/30 07:02:18;;;;;;;;;;;11.80;99.90;;;-141.50;100.00;62695.63;4991078;28;20376;-65
2022/04/30 07:04:49;;;;;;;;;;;11.80;99.90;;;-141.50;100.00;62695.63;4980961;28;20008;-65
2022/04/30 07:07:17;;;;;;;;;;;11.90;99.90;;;-141.50;100.00;62695.63;4988225;28;20059;-65
2022/04/30 07:09:44;;;;;;;;;;;12.00;99.90;;;-141.50;100.00;62695.63;4990861;28;19921;-65
2022/04/30 07:12:13;;;;;;;;;;;12.00;99.90;;;-141.50;100.00;62695.63;4989211;28;20036;-65
2022/04/30 07:14:41;;;;;;;;;;;12.00;99.90;;;-141.50;100.00;62695.63;4989578;28;19926;-65
2022/04/30 07:17:10;;;;;;;;;;;11.90;99.90;;;-141.50;100.00;62695.63;4990104;28;19921;-64
2022/04/30 07:19:37;;;;;;;;;;;11.90;99.90;;;-141.50;100.00;62695.63;4987515;28;19965;-65
2022/04/30 07:22:04;;;;;;;;;;;12.00;99.90;;;-141.50;100.00;62695.63;4970238;28;20029;-66
2022/04/30 07:27:12;;;;;;;;;;;12.10;99.90;;;-141.50;100.00;62695.63;4932254;29;19962;-69
2022/04/30 07:29:39;;;;;;;;;;;11.90;99.90;;;-141.50;100.00;62695.63;4903206;29;19995;-69
2022/04/30 07:32:07;;;;;;;;;;;12.00;99.90;;;-141.50;100.00;62695.63;4932962;29;19922;-69
2022/04/30 07:34:36;;;;;;;;;;;12.00;99.90;;;-141.50;100.00;62695.63;4951052;29;20457;-69
2022/04/30 07:37:03;;;;;;;;;;;12.10;99.90;;;-141.50;100.00;62695.63;4919935;29;19922;-69
2022/04/30 07:39:30;;;;;;;;;;;12.20;99.90;;;-141.50;100.00;62695.63;4926522;29;19978;-70
2022/04/30 07:41:57;;;;;;;;;;;12.30;99.90;;;-141.50;100.00;62695.63;4908492;29;19994;-70
2022/04/30 07:44:26;;;;;;;;;;;12.50;99.90;;;-141.50;100.00;62695.63;4936248;29;20214;-69
2022/04/30 07:46:53;;;;;;;;;;;12.50;99.90;;;-141.50;100.00;62695.63;4936477;29;19922;-69
2022/04/30 07:49:21;;;;;;;0.40;0.40;;;12.70;99.90;;;-141.50;100.00;62695.63;4935503;29;20727;-69
2022/04/30 07:51:55;;;;;;;1.50;1.10;;;12.90;99.90;;;-141.50;100.00;62695.63;4933730;29;24522;-69
2022/04/30 07:54:24;;;;;;;0.40;0.30;;;13.10;99.90;;;-141.50;100.00;62695.63;4929257;29;24913;-70
2022/04/30 07:56:56;;;;;;;0.30;0.30;;;12.90;99.90;;;-141.50;100.00;62695.63;4925958;29;20233;-69
2022/04/30 07:59:26;;;;;;;0.30;0.30;;;12.80;99.90;;;-141.50;100.00;62695.63;4933907;29;21013;-69
2022/04/30 08:01:53;;;;;;;0.60;0.60;;;12.80;99.90;;;-141.50;100.00;62695.63;4934111;29;21177;-69
2022/04/30 08:04:22;;;;;;;0.30;0.20;;;12.80;99.90;;;-141.50;100.00;62695.63;4917486;29;21016;-71
2022/04/30 08:06:49;;;;;;;0.30;0.20;;;12.70;99.90;;;-141.50;100.00;62695.63;4926149;29;21285;-67
2022/04/30 08:09:16;;;;;;;0.30;0.20;;;12.80;99.90;;;-141.50;100.00;62695.63;4934312;29;20720;-65
2022/04/30 08:11:43;;;;;;;0.30;0.30;;;12.80;99.90;;;-141.50;100.00;62695.63;4918067;29;21194;-65
2022/04/30 08:14:11;;;;;;;0.50;0.50;;;12.90;99.90;;;-141.50;100.00;62695.63;4933540;29;20644;-69
2022/04/30 08:16:38;;;;;;;0.77;0.77;;;13.00;99.90;;;-141.50;100.00;62695.63;4933240;29;20657;-64
2022/04/30 08:19:05;;;;;;;0.30;0.20;;;13.10;99.90;;;-141.50;100.00;62695.63;4933013;29;20652;-69
2022/04/30 08:21:32;;;;;;;0.30;0.30;;;13.00;99.90;;;-141.50;100.00;62695.63;4916390;29;20632;-69
2022/04/30 08:24:02;;;;;;;0.30;0.20;;;12.90;99.90;;;-141.50;100.00;62695.63;4930474;29;20949;-70
2022/04/30 08:26:29;;;;;;;0.30;0.20;;;12.80;99.90;;;-141.50;100.00;62695.63;4956418;28;20766;-68
2022/04/30 08:28:56;;;;;;;0.30;0.20;;;12.90;99.90;;;-141.50;100.00;62695.63;4940385;29;21111;-69
2022/04/30 08:31:26;;;;;;;0.30;0.20;;;12.80;99.90;;;-141.50;100.00;62695.63;4943764;29;20671;-70
2022/04/30 08:33:53;;;;;;;0.30;0.20;;;12.80;99.90;;;-141.50;100.00;62695.63;4947997;29;21253;-69
2022/04/30 08:36:20;;;;;;;0.30;0.30;;;12.80;99.90;;;-141.50;100.00;62695.63;4920134;29;20665;-69
2022/04/30 08:38:47;;;;;;;0.30;0.20;;;12.80;99.90;;;-141.50;100.00;62695.63;4934341;29;21214;-70
2022/04/30 08:41:14;;;;;;;0.30;0.30;;;12.90;99.90;;;-141.50;100.00;62695.63;4933628;29;21023;-69
2022/04/30 08:43:43;;;;;;;0.30;0.30;;;12.90;99.90;;;-141.50;100.00;62695.63;4934926;29;20625;-69
2022/04/30 08:46:10;;;;;;;0.30;0.30;;;13.00;99.90;;;-141.50;100.00;62695.63;4903010;29;20660;-69
2022/04/30 08:48:38;;;;;;;0.30;0.30;;;13.00;99.90;;;-141.50;100.00;62695.63;4936137;29;20720;-71
2022/04/30 08:51:05;;;;;;;0.30;0.30;;;13.20;99.90;;;-141.50;100.00;62695.63;4930233;29;21391;-69
2022/04/30 08:53:32;;;;;;;0.30;0.30;;;13.20;99.90;;;-141.50;100.00;62695.63;4926991;29;20641;-70
2022/04/30 08:55:59;;;;;;;0.43;0.43;;;13.20;99.90;;;-141.50;100.00;62695.63;4930010;29;21294;-70
2022/04/30 08:58:26;;;;;;;0.77;0.77;;;13.10;99.90;;;-141.50;100.00;62695.63;4922502;29;20643;-70
2022/04/30 09:00:53;;;;;;;0.30;0.20;;;12.90;99.90;;;-141.50;100.00;62695.63;4935419;29;20675;-70
2022/04/30 09:03:21;;;;;;;0.30;0.30;;;12.80;99.90;;;-141.50;100.00;62695.63;4934104;29;20748;-70
2022/04/30 09:05:48;;;;;;;0.30;0.20;;;12.70;99.90;;;-141.50;100.00;62695.63;4934740;29;20641;-70
2022/04/30 09:08:16;;;;;;;0.30;0.20;;;12.60;99.90;;;-141.50;100.00;62695.63;4918773;29;20739;-70
2022/04/30 09:10:44;;;;;;;0.30;0.30;;;12.50;99.90;;;-141.50;100.00;62695.63;4935642;29;20663;-65
2022/04/30 09:13:14;;;;;;;0.30;0.23;;;12.40;99.90;;;-141.50;100.00;62695.63;4933781;29;20640;-68
2022/04/30 09:15:46;;;;;;;0.30;0.20;;;12.40;99.90;;;-141.50;100.00;62695.63;4918079;29;20641;-69
2022/04/30 09:18:15;;;;;;;0.30;0.20;;;12.40;99.90;;;-141.50;100.00;62695.63;4933299;29;20724;-71
2022/04/30 09:20:48;;;;;;;0.30;0.20;;;12.30;99.90;;;-141.50;100.00;62695.63;4935694;29;20621;-68
2022/04/30 09:23:36;;;;;;;0.30;0.20;;;12.30;99.90;;;-141.50;100.00;62695.63;4933850;29;20723;-71
2022/04/30 09:26:04;;;;;;;3.80;2.10;;;12.20;99.90;;;-141.50;100.00;62695.63;4944852;29;21275;-68
2022/04/30 09:28:34;;;;;;;0.30;0.20;;;12.30;99.90;;;-141.50;100.00;62695.63;4952712;29;20667;-71
2022/04/30 09:31:16;;;;;;;0.30;0.20;;;12.20;99.90;;;-141.50;100.00;62695.63;4933637;29;20661;-67
2022/04/30 09:33:56;;;;;;;0.30;0.20;;;12.20;99.90;;;-141.50;100.00;62695.63;4920388;29;20624;-69
2022/04/30 09:39:16;;;;;;;0.30;0.30;;;12.10;99.90;;;-141.50;100.00;62695.63;4957546;28;20616;-70
2022/04/30 09:41:46;;;;;;;0.30;0.30;;;12.10;99.90;;;-141.50;100.00;62695.63;4953085;29;20711;-69
2022/04/30 09:44:16;;;;;;;0.30;0.20;;;12.10;99.90;;;-141.50;100.00;62695.63;4934113;29;20643;-69
2022/04/30 09:46:43;;;;;;;0.30;0.20;;;12.10;99.90;;;-141.50;100.00;62695.63;4935767;29;20656;-70
2022/04/30 09:54:43;;;;;;;0.30;0.27;;;12.10;99.90;;;-141.50;100.00;62695.63;4951851;28;20620;-70
2022/04/30 09:57:14;;;;;;;0.30;0.30;;;12.10;99.90;;;-141.50;100.00;62695.63;4950256;28;20995;-69
2022/04/30 09:59:44;;;;;;;0.30;0.30;;;12.20;99.90;;;-141.50;100.00;62695.63;4958410;28;20628;-65
2022/04/30 10:02:14;;;;;;;0.30;0.20;;;12.10;99.90;;;-141.50;100.00;62695.63;4968582;28;20615;-69
2022/04/30 10:04:44;;;;;;;0.30;0.27;;;12.10;99.90;;;-141.50;100.00;62695.63;4940389;28;20636;-69
2022/04/30 10:07:15;;;;;;;0.30;0.20;;;12.20;99.90;;;-141.50;100.00;62695.63;4952242;28;20715;-70
2022/04/30 10:09:51;;;;;;;0.30;0.20;;;12.30;99.90;;;-141.50;100.00;62695.63;4932360;29;20633;-66
2022/04/30 10:12:41;;;;;;;0.30;0.30;;;12.30;99.90;;;-141.50;100.00;62695.63;4919182;29;20650;-70
2022/04/30 10:15:30;;;;;;;0.30;0.20;;;12.30;99.90;;;-141.50;100.00;62695.63;4935625;29;20663;-69
2022/04/30 10:17:58;;;;;;;0.30;0.30;;;12.20;99.90;;;-141.50;100.00;62695.63;4946588;29;21039;-70
2022/04/30 10:20:32;;;;;;;0.30;0.30;;;12.30;99.90;;;-141.50;100.00;62695.63;4931728;29;20617;-69
2022/04/30 10:23:01;;;;;;;0.30;0.20;;;12.20;99.90;;;-141.50;100.00;62695.63;4927758;29;20650;-69
2022/04/30 10:25:32;;;;;;;0.30;0.20;;;12.30;99.90;;;-141.50;100.00;62695.63;4916557;29;20649;-69
2022/04/30 10:28:24;;;;;;;0.30;0.20;;;12.20;99.90;;;-141.50;100.00;62695.63;4931936;29;20644;-70
2022/04/30 10:31:07;;;;;;;0.37;0.37;;;12.30;99.90;;;-141.50;100.00;62695.63;4946003;28;21532;-71
2022/04/30 10:33:35;;;;;;;0.30;0.30;;;12.20;99.90;;;-141.50;100.00;62695.63;4934349;29;21928;-69
2022/04/30 10:36:10;;;;;;;0.30;0.20;;;12.30;99.90;;;-141.50;100.00;62695.63;4931724;29;20656;-66
2022/04/30 10:38:38;;;;;;;0.30;0.30;;;12.20;99.90;;;-141.50;100.00;62695.63;4944055;28;20735;-70
2022/04/30 10:41:09;;;;;;;0.30;0.30;;;12.20;99.90;;;-141.50;100.00;62695.63;4953616;28;20628;-70
2022/04/30 10:43:42;;;;;;;0.30;0.20;;;12.20;99.90;;;-141.50;100.00;62695.63;4960351;28;20637;-71
2022/04/30 10:46:22;;;;;;;0.30;0.30;;;12.20;99.90;;;-141.50;100.00;62695.63;4972990;28;20738;-71
2022/04/30 10:48:49;;;;;;;0.30;0.30;;;12.20;99.90;;;-141.50;100.00;62695.63;4972852;28;20603;-65